sensor_id;sensor_type;location;lat;lon;timestamp;P1;durP1;ratioP1;P2;durP2;ratioP2
23044;SDS011;11690;51.716;23.066;2023-09-07T00:01:19;11.07;;;5.95;;
23044;SDS011;11690;51.716;23.066;2023-09-07T00:03:46;11.73;;;6.28;;
23044;SDS011;11690;51.716;23.066;2023-09-07T00:06:14;10.52;;;6.43;;
23044;SDS011;11690;51.716;23.066;2023-09-07T00:08:41;13.63;;;6.50;;
23044;SDS011;11690;51.716;23.066;2023-09-07T00:11:08;8.95;;;5.68;;
23044;SDS011;11690;51.716;23.066;2023-09-07T00:13:38;8.27;;;5.55;;
23044;SDS011;11690;51.716;23.066;2023-09-07T00:16:06;10.32;;;6.40;;
23044;SDS011;11690;51.716;23.066;2023-09-07T00:18:34;7.65;;;4.90;;
23044;SDS011;11690;51.716;23.066;2023-09-07T00:21:01;9.88;;;4.95;;
23044;SDS011;11690;51.716;23.066;2023-09-07T00:23:29;9.48;;;5.82;;
23044;SDS011;11690;51.716;23.066;2023-09-07T00:25:57;10.32;;;5.80;;
23044;SDS011;11690;51.716;23.066;2023-09-07T00:28:24;10.07;;;5.07;;
23044;SDS011;11690;51.716;23.066;2023-09-07T00:30:52;9.00;;;5.57;;
23044;SDS011;11690;51.716;23.066;2023-09-07T00:33:19;10.82;;;6.25;;
23044;SDS011;11690;51.716;23.066;2023-09-07T00:35:47;9.93;;;6.30;;
23044;SDS011;11690;51.716;23.066;2023-09-07T00:38:14;12.27;;;6.05;;
23044;SDS011;11690;51.716;23.066;2023-09-07T00:40:44;13.02;;;6.68;;
23044;SDS011;11690;51.716;23.066;2023-09-07T00:43:14;10.13;;;6.55;;
23044;SDS011;11690;51.716;23.066;2023-09-07T00:45:41;9.82;;;6.57;;
23044;SDS011;11690;51.716;23.066;2023-09-07T00:48:09;13.07;;;6.35;;
23044;SDS011;11690;51.716;23.066;2023-09-07T00:50:40;9.43;;;5.90;;
23044;SDS011;11690;51.716;23.066;2023-09-07T00:53:07;11.88;;;6.05;;
23044;SDS011;11690;51.716;23.066;2023-09-07T00:55:34;10.05;;;5.50;;
23044;SDS011;11690;51.716;23.066;2023-09-07T00:58:03;11.70;;;7.05;;
23044;SDS011;11690;51.716;23.066;2023-09-07T01:00:31;11.25;;;6.68;;
23044;SDS011;11690;51.716;23.066;2023-09-07T01:02:59;10.25;;;5.88;;
23044;SDS011;11690;51.716;23.066;2023-09-07T01:05:30;12.27;;;6.63;;
23044;SDS011;11690;51.716;23.066;2023-09-07T01:08:03;8.93;;;5.70;;
23044;SDS011;11690;51.716;23.066;2023-09-07T01:10:37;9.10;;;5.72;;
23044;SDS011;11690;51.716;23.066;2023-09-07T01:13:04;7.18;;;5.78;;
23044;SDS011;11690;51.716;23.066;2023-09-07T01:15:32;9.13;;;5.60;;
23044;SDS011;11690;51.716;23.066;2023-09-07T01:17:59;7.90;;;5.68;;
23044;SDS011;11690;51.716;23.066;2023-09-07T01:20:46;9.73;;;6.03;;
23044;SDS011;11690;51.716;23.066;2023-09-07T01:23:14;10.63;;;5.75;;
23044;SDS011;11690;51.716;23.066;2023-09-07T01:25:41;12.75;;;5.80;;
23044;SDS011;11690;51.716;23.066;2023-09-07T01:28:09;9.43;;;5.63;;
23044;SDS011;11690;51.716;23.066;2023-09-07T01:30:36;7.20;;;5.38;;
23044;SDS011;11690;51.716;23.066;2023-09-07T01:33:05;11.95;;;5.75;;
23044;SDS011;11690;51.716;23.066;2023-09-07T01:35:32;7.72;;;5.35;;
23044;SDS011;11690;51.716;23.066;2023-09-07T01:38:00;9.20;;;5.72;;
23044;SDS011;11690;51.716;23.066;2023-09-07T01:40:28;10.20;;;5.40;;
23044;SDS011;11690;51.716;23.066;2023-09-07T01:42:56;9.15;;;6.15;;
23044;SDS011;11690;51.716;23.066;2023-09-07T01:45:23;9.13;;;5.53;;
23044;SDS011;11690;51.716;23.066;2023-09-07T01:47:50;11.13;;;5.50;;
23044;SDS011;11690;51.716;23.066;2023-09-07T01:50:19;8.07;;;5.55;;
23044;SDS011;11690;51.716;23.066;2023-09-07T01:52:47;9.05;;;6.05;;
23044;SDS011;11690;51.716;23.066;2023-09-07T01:55:17;10.15;;;5.63;;
23044;SDS011;11690;51.716;23.066;2023-09-07T01:57:44;10.45;;;5.65;;
23044;SDS011;11690;51.716;23.066;2023-09-07T02:00:11;11.63;;;6.40;;
23044;SDS011;11690;51.716;23.066;2023-09-07T02:02:39;9.40;;;6.50;;
23044;SDS011;11690;51.716;23.066;2023-09-07T02:05:06;11.88;;;7.00;;
23044;SDS011;11690;51.716;23.066;2023-09-07T02:07:35;9.95;;;6.53;;
23044;SDS011;11690;51.716;23.066;2023-09-07T02:10:02;9.93;;;6.47;;
23044;SDS011;11690;51.716;23.066;2023-09-07T02:12:30;10.50;;;6.70;;
23044;SDS011;11690;51.716;23.066;2023-09-07T02:14:59;9.30;;;6.47;;
23044;SDS011;11690;51.716;23.066;2023-09-07T02:17:27;11.05;;;6.38;;
23044;SDS011;11690;51.716;23.066;2023-09-07T02:19:55;9.40;;;6.63;;
23044;SDS011;11690;51.716;23.066;2023-09-07T02:22:22;12.20;;;6.93;;
23044;SDS011;11690;51.716;23.066;2023-09-07T02:24:50;9.48;;;5.97;;
23044;SDS011;11690;51.716;23.066;2023-09-07T02:27:17;10.60;;;6.63;;
23044;SDS011;11690;51.716;23.066;2023-09-07T02:29:45;13.57;;;7.05;;
23044;SDS011;11690;51.716;23.066;2023-09-07T02:32:13;16.42;;;7.45;;
23044;SDS011;11690;51.716;23.066;2023-09-07T02:34:41;9.82;;;6.45;;
23044;SDS011;11690;51.716;23.066;2023-09-07T02:37:09;16.58;;;7.63;;
23044;SDS011;11690;51.716;23.066;2023-09-07T02:39:36;11.35;;;6.82;;
23044;SDS011;11690;51.716;23.066;2023-09-07T02:42:04;9.73;;;7.07;;
23044;SDS011;11690;51.716;23.066;2023-09-07T02:44:32;11.35;;;6.28;;
23044;SDS011;11690;51.716;23.066;2023-09-07T02:47:00;11.57;;;6.70;;
23044;SDS011;11690;51.716;23.066;2023-09-07T02:49:28;11.18;;;6.22;;
23044;SDS011;11690;51.716;23.066;2023-09-07T02:51:55;10.10;;;6.30;;
23044;SDS011;11690;51.716;23.066;2023-09-07T02:54:22;12.43;;;7.18;;
23044;SDS011;11690;51.716;23.066;2023-09-07T02:56:50;14.15;;;6.20;;
23044;SDS011;11690;51.716;23.066;2023-09-07T02:59:18;8.20;;;6.32;;
23044;SDS011;11690;51.716;23.066;2023-09-07T03:01:47;10.00;;;5.80;;
23044;SDS011;11690;51.716;23.066;2023-09-07T03:04:14;10.80;;;6.68;;
23044;SDS011;11690;51.716;23.066;2023-09-07T03:06:42;9.85;;;6.65;;
23044;SDS011;11690;51.716;23.066;2023-09-07T03:09:09;9.55;;;6.32;;
23044;SDS011;11690;51.716;23.066;2023-09-07T03:11:37;11.05;;;7.38;;
23044;SDS011;11690;51.716;23.066;2023-09-07T03:14:04;9.70;;;6.15;;
23044;SDS011;11690;51.716;23.066;2023-09-07T03:16:32;10.93;;;6.85;;
23044;SDS011;11690;51.716;23.066;2023-09-07T03:19:00;12.63;;;8.35;;
23044;SDS011;11690;51.716;23.066;2023-09-07T03:21:27;14.77;;;7.85;;
23044;SDS011;11690;51.716;23.066;2023-09-07T03:23:57;18.13;;;7.75;;
23044;SDS011;11690;51.716;23.066;2023-09-07T03:26:27;12.20;;;8.45;;
23044;SDS011;11690;51.716;23.066;2023-09-07T03:28:54;15.52;;;8.77;;
23044;SDS011;11690;51.716;23.066;2023-09-07T03:31:22;15.77;;;8.25;;
23044;SDS011;11690;51.716;23.066;2023-09-07T03:33:50;13.27;;;8.00;;
23044;SDS011;11690;51.716;23.066;2023-09-07T03:36:18;12.82;;;7.88;;
23044;SDS011;11690;51.716;23.066;2023-09-07T03:38:45;17.77;;;9.05;;
23044;SDS011;11690;51.716;23.066;2023-09-07T03:41:13;16.00;;;8.77;;
23044;SDS011;11690;51.716;23.066;2023-09-07T03:43:40;13.77;;;8.90;;
23044;SDS011;11690;51.716;23.066;2023-09-07T03:46:08;15.90;;;9.35;;
23044;SDS011;11690;51.716;23.066;2023-09-07T03:48:36;15.13;;;9.00;;
23044;SDS011;11690;51.716;23.066;2023-09-07T03:51:07;14.23;;;9.23;;
23044;SDS011;11690;51.716;23.066;2023-09-07T03:53:35;15.57;;;8.60;;
23044;SDS011;11690;51.716;23.066;2023-09-07T03:56:03;11.30;;;7.95;;
23044;SDS011;11690;51.716;23.066;2023-09-07T03:58:33;12.57;;;8.18;;
23044;SDS011;11690;51.716;23.066;2023-09-07T04:01:00;19.98;;;9.00;;
23044;SDS011;11690;51.716;23.066;2023-09-07T04:03:29;16.00;;;8.60;;
23044;SDS011;11690;51.716;23.066;2023-09-07T04:05:56;16.33;;;8.55;;
23044;SDS011;11690;51.716;23.066;2023-09-07T04:08:23;16.85;;;8.77;;
23044;SDS011;11690;51.716;23.066;2023-09-07T04:10:51;11.80;;;9.02;;
23044;SDS011;11690;51.716;23.066;2023-09-07T04:13:18;13.50;;;8.90;;
23044;SDS011;11690;51.716;23.066;2023-09-07T04:15:46;13.90;;;9.43;;
23044;SDS011;11690;51.716;23.066;2023-09-07T04:18:15;13.45;;;8.70;;
23044;SDS011;11690;51.716;23.066;2023-09-07T04:20:44;11.70;;;8.07;;
23044;SDS011;11690;51.716;23.066;2023-09-07T04:23:13;15.23;;;8.60;;
23044;SDS011;11690;51.716;23.066;2023-09-07T04:25:40;12.80;;;8.00;;
23044;SDS011;11690;51.716;23.066;2023-09-07T04:28:08;12.88;;;8.40;;
23044;SDS011;11690;51.716;23.066;2023-09-07T04:30:39;18.48;;;9.63;;
23044;SDS011;11690;51.716;23.066;2023-09-07T04:33:07;17.05;;;9.80;;
23044;SDS011;11690;51.716;23.066;2023-09-07T04:35:36;14.70;;;8.63;;
23044;SDS011;11690;51.716;23.066;2023-09-07T04:38:05;13.77;;;8.95;;
23044;SDS011;11690;51.716;23.066;2023-09-07T04:40:33;14.88;;;8.93;;
23044;SDS011;11690;51.716;23.066;2023-09-07T04:43:00;16.52;;;9.23;;
23044;SDS011;11690;51.716;23.066;2023-09-07T04:45:27;16.00;;;9.75;;
23044;SDS011;11690;51.716;23.066;2023-09-07T04:47:54;13.60;;;8.68;;
23044;SDS011;11690;51.716;23.066;2023-09-07T04:50:22;12.35;;;8.85;;
23044;SDS011;11690;51.716;23.066;2023-09-07T04:52:49;13.88;;;8.82;;
23044;SDS011;11690;51.716;23.066;2023-09-07T04:55:17;13.05;;;8.50;;
23044;SDS011;11690;51.716;23.066;2023-09-07T04:57:44;15.38;;;9.10;;
23044;SDS011;11690;51.716;23.066;2023-09-07T05:00:11;14.07;;;8.75;;
23044;SDS011;11690;51.716;23.066;2023-09-07T05:02:39;14.90;;;8.95;;
23044;SDS011;11690;51.716;23.066;2023-09-07T05:05:09;11.75;;;8.68;;
23044;SDS011;11690;51.716;23.066;2023-09-07T05:07:36;18.52;;;8.93;;
23044;SDS011;11690;51.716;23.066;2023-09-07T05:10:04;12.27;;;8.52;;
23044;SDS011;11690;51.716;23.066;2023-09-07T05:12:33;14.27;;;8.55;;
23044;SDS011;11690;51.716;23.066;2023-09-07T05:15:01;17.77;;;9.57;;
23044;SDS011;11690;51.716;23.066;2023-09-07T05:17:28;19.73;;;9.85;;
23044;SDS011;11690;51.716;23.066;2023-09-07T05:19:56;14.95;;;8.98;;
23044;SDS011;11690;51.716;23.066;2023-09-07T05:22:23;15.65;;;8.20;;
23044;SDS011;11690;51.716;23.066;2023-09-07T05:24:50;12.35;;;7.38;;
23044;SDS011;11690;51.716;23.066;2023-09-07T05:27:17;8.45;;;6.38;;
23044;SDS011;11690;51.716;23.066;2023-09-07T05:29:44;9.55;;;6.38;;
23044;SDS011;11690;51.716;23.066;2023-09-07T05:32:12;13.27;;;6.45;;
23044;SDS011;11690;51.716;23.066;2023-09-07T05:34:40;8.60;;;6.63;;
23044;SDS011;11690;51.716;23.066;2023-09-07T05:37:07;10.55;;;5.88;;
23044;SDS011;11690;51.716;23.066;2023-09-07T05:39:35;8.18;;;5.43;;
23044;SDS011;11690;51.716;23.066;2023-09-07T05:42:02;8.93;;;6.10;;
23044;SDS011;11690;51.716;23.066;2023-09-07T05:44:30;12.30;;;6.20;;
23044;SDS011;11690;51.716;23.066;2023-09-07T05:46:57;10.20;;;5.72;;
23044;SDS011;11690;51.716;23.066;2023-09-07T05:49:26;9.63;;;6.22;;
23044;SDS011;11690;51.716;23.066;2023-09-07T05:51:53;9.90;;;5.70;;
23044;SDS011;11690;51.716;23.066;2023-09-07T05:54:21;8.93;;;5.45;;
23044;SDS011;11690;51.716;23.066;2023-09-07T05:56:48;9.23;;;5.65;;
23044;SDS011;11690;51.716;23.066;2023-09-07T05:59:15;10.30;;;5.80;;
23044;SDS011;11690;51.716;23.066;2023-09-07T06:01:43;14.02;;;5.65;;
23044;SDS011;11690;51.716;23.066;2023-09-07T06:04:10;8.68;;;5.25;;
23044;SDS011;11690;51.716;23.066;2023-09-07T06:06:37;10.73;;;5.80;;
23044;SDS011;11690;51.716;23.066;2023-09-07T06:09:05;12.02;;;5.38;;
23044;SDS011;11690;51.716;23.066;2023-09-07T06:11:32;8.40;;;5.32;;
23044;SDS011;11690;51.716;23.066;2023-09-07T06:14:01;11.52;;;5.57;;
23044;SDS011;11690;51.716;23.066;2023-09-07T06:16:29;10.77;;;5.75;;
23044;SDS011;11690;51.716;23.066;2023-09-07T06:18:56;8.15;;;5.47;;
23044;SDS011;11690;51.716;23.066;2023-09-07T06:21:24;12.68;;;5.68;;
23044;SDS011;11690;51.716;23.066;2023-09-07T06:23:51;7.40;;;4.90;;
23044;SDS011;11690;51.716;23.066;2023-09-07T06:26:19;8.02;;;4.78;;
23044;SDS011;11690;51.716;23.066;2023-09-07T06:28:46;8.13;;;4.90;;
23044;SDS011;11690;51.716;23.066;2023-09-07T06:31:14;12.38;;;5.32;;
23044;SDS011;11690;51.716;23.066;2023-09-07T06:33:44;7.65;;;4.80;;
23044;SDS011;11690;51.716;23.066;2023-09-07T06:36:12;10.88;;;4.88;;
23044;SDS011;11690;51.716;23.066;2023-09-07T06:38:39;14.68;;;5.20;;
23044;SDS011;11690;51.716;23.066;2023-09-07T06:41:06;7.07;;;4.80;;
23044;SDS011;11690;51.716;23.066;2023-09-07T06:43:35;12.23;;;5.28;;
23044;SDS011;11690;51.716;23.066;2023-09-07T06:46:06;7.57;;;4.60;;
23044;SDS011;11690;51.716;23.066;2023-09-07T06:48:35;9.43;;;4.80;;
23044;SDS011;11690;51.716;23.066;2023-09-07T06:51:03;14.02;;;5.03;;
23044;SDS011;11690;51.716;23.066;2023-09-07T06:53:32;9.75;;;4.55;;
23044;SDS011;11690;51.716;23.066;2023-09-07T06:56:20;8.38;;;4.50;;
23044;SDS011;11690;51.716;23.066;2023-09-07T06:58:48;7.47;;;4.57;;
23044;SDS011;11690;51.716;23.066;2023-09-07T07:01:15;14.23;;;4.63;;
23044;SDS011;11690;51.716;23.066;2023-09-07T07:03:42;7.57;;;4.88;;
23044;SDS011;11690;51.716;23.066;2023-09-07T07:06:10;11.07;;;5.00;;
23044;SDS011;11690;51.716;23.066;2023-09-07T07:08:38;7.78;;;4.72;;
23044;SDS011;11690;51.716;23.066;2023-09-07T07:11:05;7.88;;;4.55;;
23044;SDS011;11690;51.716;23.066;2023-09-07T07:13:33;10.88;;;4.40;;
23044;SDS011;11690;51.716;23.066;2023-09-07T07:16:00;6.32;;;4.15;;
23044;SDS011;11690;51.716;23.066;2023-09-07T07:18:28;7.22;;;4.32;;
23044;SDS011;11690;51.716;23.066;2023-09-07T07:20:56;6.22;;;4.28;;
23044;SDS011;11690;51.716;23.066;2023-09-07T07:23:24;10.15;;;4.97;;
23044;SDS011;11690;51.716;23.066;2023-09-07T07:25:51;8.35;;;5.10;;
23044;SDS011;11690;51.716;23.066;2023-09-07T07:28:19;6.70;;;4.18;;
23044;SDS011;11690;51.716;23.066;2023-09-07T07:30:46;9.73;;;4.15;;
23044;SDS011;11690;51.716;23.066;2023-09-07T07:33:15;8.00;;;4.68;;
23044;SDS011;11690;51.716;23.066;2023-09-07T07:35:43;6.70;;;4.13;;
23044;SDS011;11690;51.716;23.066;2023-09-07T07:38:10;8.98;;;4.10;;
23044;SDS011;11690;51.716;23.066;2023-09-07T07:40:40;9.10;;;4.65;;
23044;SDS011;11690;51.716;23.066;2023-09-07T07:43:08;9.32;;;4.03;;
23044;SDS011;11690;51.716;23.066;2023-09-07T07:45:36;8.05;;;4.03;;
23044;SDS011;11690;51.716;23.066;2023-09-07T07:48:05;7.43;;;4.35;;
23044;SDS011;11690;51.716;23.066;2023-09-07T07:50:40;8.98;;;4.07;;
23044;SDS011;11690;51.716;23.066;2023-09-07T07:53:09;7.30;;;3.95;;
23044;SDS011;11690;51.716;23.066;2023-09-07T07:55:37;6.30;;;3.78;;
23044;SDS011;11690;51.716;23.066;2023-09-07T07:58:07;6.40;;;3.83;;
23044;SDS011;11690;51.716;23.066;2023-09-07T08:00:37;8.52;;;4.22;;
23044;SDS011;11690;51.716;23.066;2023-09-07T08:03:05;5.88;;;4.20;;
23044;SDS011;11690;51.716;23.066;2023-09-07T08:05:36;6.75;;;4.07;;
23044;SDS011;11690;51.716;23.066;2023-09-07T08:08:07;7.32;;;3.88;;
23044;SDS011;11690;51.716;23.066;2023-09-07T08:10:35;5.43;;;3.83;;
23044;SDS011;11690;51.716;23.066;2023-09-07T08:13:05;5.53;;;3.92;;
23044;SDS011;11690;51.716;23.066;2023-09-07T08:15:33;6.43;;;3.47;;
23044;SDS011;11690;51.716;23.066;2023-09-07T08:18:01;5.70;;;3.40;;
23044;SDS011;11690;51.716;23.066;2023-09-07T08:20:31;8.98;;;3.63;;
23044;SDS011;11690;51.716;23.066;2023-09-07T08:23:00;5.40;;;3.70;;
23044;SDS011;11690;51.716;23.066;2023-09-07T08:25:31;4.00;;;3.15;;
23044;SDS011;11690;51.716;23.066;2023-09-07T08:27:58;5.90;;;3.42;;
23044;SDS011;11690;51.716;23.066;2023-09-07T08:30:26;6.88;;;3.33;;
23044;SDS011;11690;51.716;23.066;2023-09-07T08:32:53;6.10;;;3.50;;
23044;SDS011;11690;51.716;23.066;2023-09-07T08:35:22;5.28;;;3.33;;
23044;SDS011;11690;51.716;23.066;2023-09-07T08:37:54;4.40;;;3.33;;
23044;SDS011;11690;51.716;23.066;2023-09-07T08:40:21;6.32;;;3.10;;
23044;SDS011;11690;51.716;23.066;2023-09-07T08:42:49;7.72;;;3.10;;
23044;SDS011;11690;51.716;23.066;2023-09-07T08:45:18;3.63;;;2.75;;
23044;SDS011;11690;51.716;23.066;2023-09-07T08:47:48;6.68;;;3.00;;
23044;SDS011;11690;51.716;23.066;2023-09-07T08:50:15;5.88;;;3.03;;
23044;SDS011;11690;51.716;23.066;2023-09-07T08:52:44;3.55;;;2.70;;
23044;SDS011;11690;51.716;23.066;2023-09-07T08:55:12;3.80;;;2.85;;
23044;SDS011;11690;51.716;23.066;2023-09-07T08:57:40;2.72;;;2.20;;
23044;SDS011;11690;51.716;23.066;2023-09-07T09:00:07;3.75;;;2.50;;
23044;SDS011;11690;51.716;23.066;2023-09-07T09:02:40;5.03;;;2.65;;
23044;SDS011;11690;51.716;23.066;2023-09-07T09:05:10;5.65;;;2.70;;
23044;SDS011;11690;51.716;23.066;2023-09-07T09:07:39;2.40;;;2.10;;
23044;SDS011;11690;51.716;23.066;2023-09-07T09:10:06;3.75;;;2.28;;
23044;SDS011;11690;51.716;23.066;2023-09-07T09:12:34;6.88;;;2.53;;
23044;SDS011;11690;51.716;23.066;2023-09-07T09:15:01;4.57;;;2.53;;
23044;SDS011;11690;51.716;23.066;2023-09-07T09:17:33;3.97;;;2.33;;
23044;SDS011;11690;51.716;23.066;2023-09-07T09:20:00;4.95;;;2.10;;
23044;SDS011;11690;51.716;23.066;2023-09-07T09:22:27;4.10;;;2.40;;
23044;SDS011;11690;51.716;23.066;2023-09-07T09:24:54;7.50;;;2.35;;
23044;SDS011;11690;51.716;23.066;2023-09-07T09:27:21;6.18;;;2.47;;
23044;SDS011;11690;51.716;23.066;2023-09-07T09:29:49;5.93;;;2.90;;
23044;SDS011;11690;51.716;23.066;2023-09-07T09:32:17;3.22;;;2.03;;
23044;SDS011;11690;51.716;23.066;2023-09-07T09:34:46;3.85;;;2.17;;
23044;SDS011;11690;51.716;23.066;2023-09-07T09:37:14;3.47;;;2.03;;
23044;SDS011;11690;51.716;23.066;2023-09-07T09:39:48;3.55;;;2.08;;
23044;SDS011;11690;51.716;23.066;2023-09-07T09:42:17;3.22;;;1.95;;
23044;SDS011;11690;51.716;23.066;2023-09-07T09:44:44;3.88;;;2.28;;
23044;SDS011;11690;51.716;23.066;2023-09-07T09:47:12;4.25;;;1.98;;
23044;SDS011;11690;51.716;23.066;2023-09-07T09:49:40;8.00;;;2.15;;
23044;SDS011;11690;51.716;23.066;2023-09-07T09:52:07;4.93;;;1.77;;
23044;SDS011;11690;51.716;23.066;2023-09-07T09:54:35;7.72;;;2.55;;
23044;SDS011;11690;51.716;23.066;2023-09-07T09:57:03;4.25;;;2.10;;
23044;SDS011;11690;51.716;23.066;2023-09-07T09:59:30;4.93;;;2.00;;
23044;SDS011;11690;51.716;23.066;2023-09-07T10:01:57;3.08;;;2.30;;
23044;SDS011;11690;51.716;23.066;2023-09-07T10:04:25;2.67;;;1.80;;
23044;SDS011;11690;51.716;23.066;2023-09-07T10:06:56;3.10;;;1.70;;
23044;SDS011;11690;51.716;23.066;2023-09-07T10:09:29;12.05;;;2.28;;
23044;SDS011;11690;51.716;23.066;2023-09-07T10:11:57;5.00;;;2.15;;
23044;SDS011;11690;51.716;23.066;2023-09-07T10:14:26;2.78;;;2.08;;
23044;SDS011;11690;51.716;23.066;2023-09-07T10:17:05;2.42;;;1.90;;
23044;SDS011;11690;51.716;23.066;2023-09-07T10:19:33;3.13;;;1.90;;
23044;SDS011;11690;51.716;23.066;2023-09-07T10:22:03;4.22;;;2.30;;
23044;SDS011;11690;51.716;23.066;2023-09-07T10:24:31;3.28;;;2.20;;
23044;SDS011;11690;51.716;23.066;2023-09-07T10:27:03;3.25;;;2.03;;
23044;SDS011;11690;51.716;23.066;2023-09-07T10:29:44;5.10;;;1.98;;
23044;SDS011;11690;51.716;23.066;2023-09-07T10:32:13;3.15;;;1.80;;
23044;SDS011;11690;51.716;23.066;2023-09-07T10:34:45;2.53;;;1.80;;
23044;SDS011;11690;51.716;23.066;2023-09-07T10:37:13;2.97;;;1.90;;
23044;SDS011;11690;51.716;23.066;2023-09-07T10:39:42;3.72;;;1.70;;
23044;SDS011;11690;51.716;23.066;2023-09-07T10:42:20;4.47;;;2.33;;
23044;SDS011;11690;51.716;23.066;2023-09-07T10:44:48;3.78;;;2.38;;
23044;SDS011;11690;51.716;23.066;2023-09-07T10:47:15;3.75;;;2.10;;
23044;SDS011;11690;51.716;23.066;2023-09-07T10:49:42;4.75;;;2.00;;
23044;SDS011;11690;51.716;23.066;2023-09-07T10:52:09;4.95;;;2.17;;
23044;SDS011;11690;51.716;23.066;2023-09-07T10:54:37;2.65;;;1.90;;
23044;SDS011;11690;51.716;23.066;2023-09-07T10:57:07;2.75;;;1.98;;
23044;SDS011;11690;51.716;23.066;2023-09-07T10:59:35;4.47;;;1.90;;
23044;SDS011;11690;51.716;23.066;2023-09-07T11:02:03;4.10;;;2.42;;
23044;SDS011;11690;51.716;23.066;2023-09-07T11:04:31;3.58;;;1.80;;
23044;SDS011;11690;51.716;23.066;2023-09-07T11:06:58;6.22;;;1.67;;
23044;SDS011;11690;51.716;23.066;2023-09-07T11:09:25;5.78;;;2.00;;
23044;SDS011;11690;51.716;23.066;2023-09-07T11:11:53;2.83;;;2.05;;
23044;SDS011;11690;51.716;23.066;2023-09-07T11:14:21;5.90;;;1.83;;
23044;SDS011;11690;51.716;23.066;2023-09-07T11:16:48;3.00;;;1.70;;
23044;SDS011;11690;51.716;23.066;2023-09-07T11:19:15;2.53;;;1.83;;
23044;SDS011;11690;51.716;23.066;2023-09-07T11:21:46;4.85;;;1.90;;
23044;SDS011;11690;51.716;23.066;2023-09-07T11:24:13;3.72;;;1.88;;
23044;SDS011;11690;51.716;23.066;2023-09-07T11:26:43;4.28;;;2.30;;
23044;SDS011;11690;51.716;23.066;2023-09-07T11:29:15;2.72;;;2.00;;
23044;SDS011;11690;51.716;23.066;2023-09-07T11:31:43;2.45;;;1.90;;
23044;SDS011;11690;51.716;23.066;2023-09-07T11:34:12;2.88;;;1.98;;
23044;SDS011;11690;51.716;23.066;2023-09-07T11:36:40;5.18;;;1.88;;
23044;SDS011;11690;51.716;23.066;2023-09-07T11:39:08;6.72;;;2.08;;
23044;SDS011;11690;51.716;23.066;2023-09-07T11:41:42;3.08;;;1.70;;
23044;SDS011;11690;51.716;23.066;2023-09-07T11:44:10;2.20;;;1.80;;
23044;SDS011;11690;51.716;23.066;2023-09-07T11:46:39;4.55;;;1.98;;
23044;SDS011;11690;51.716;23.066;2023-09-07T11:49:06;4.80;;;1.85;;
23044;SDS011;11690;51.716;23.066;2023-09-07T11:51:36;3.90;;;1.75;;
23044;SDS011;11690;51.716;23.066;2023-09-07T11:54:04;3.70;;;1.95;;
23044;SDS011;11690;51.716;23.066;2023-09-07T11:56:31;4.05;;;1.77;;
23044;SDS011;11690;51.716;23.066;2023-09-07T11:58:59;2.63;;;1.70;;
23044;SDS011;11690;51.716;23.066;2023-09-07T12:01:26;6.70;;;1.80;;
23044;SDS011;11690;51.716;23.066;2023-09-07T12:03:54;3.03;;;1.85;;
23044;SDS011;11690;51.716;23.066;2023-09-07T12:06:22;3.42;;;1.90;;
23044;SDS011;11690;51.716;23.066;2023-09-07T12:08:59;4.47;;;2.08;;
23044;SDS011;11690;51.716;23.066;2023-09-07T12:11:27;6.60;;;2.38;;
23044;SDS011;11690;51.716;23.066;2023-09-07T12:13:54;5.32;;;2.80;;
23044;SDS011;11690;51.716;23.066;2023-09-07T12:16:22;2.80;;;1.70;;
23044;SDS011;11690;51.716;23.066;2023-09-07T12:18:49;3.47;;;2.10;;
23044;SDS011;11690;51.716;23.066;2023-09-07T12:21:16;2.75;;;1.45;;
23044;SDS011;11690;51.716;23.066;2023-09-07T12:23:43;6.90;;;1.90;;
23044;SDS011;11690;51.716;23.066;2023-09-07T12:26:14;1.90;;;1.50;;
23044;SDS011;11690;51.716;23.066;2023-09-07T12:28:41;2.47;;;1.70;;
23044;SDS011;11690;51.716;23.066;2023-09-07T12:31:08;3.15;;;1.75;;
23044;SDS011;11690;51.716;23.066;2023-09-07T12:33:36;7.40;;;1.80;;
23044;SDS011;11690;51.716;23.066;2023-09-07T12:36:04;1.92;;;1.45;;
23044;SDS011;11690;51.716;23.066;2023-09-07T12:38:36;4.55;;;2.15;;
23044;SDS011;11690;51.716;23.066;2023-09-07T12:41:03;3.50;;;1.63;;
23044;SDS011;11690;51.716;23.066;2023-09-07T12:43:30;3.38;;;1.52;;
23044;SDS011;11690;51.716;23.066;2023-09-07T12:45:58;3.95;;;1.90;;
23044;SDS011;11690;51.716;23.066;2023-09-07T12:48:25;3.17;;;2.38;;
23044;SDS011;11690;51.716;23.066;2023-09-07T12:50:53;1.63;;;1.40;;
23044;SDS011;11690;51.716;23.066;2023-09-07T12:53:21;2.45;;;1.55;;
23044;SDS011;11690;51.716;23.066;2023-09-07T12:55:53;2.92;;;1.92;;
23044;SDS011;11690;51.716;23.066;2023-09-07T12:58:20;4.53;;;1.73;;
23044;SDS011;11690;51.716;23.066;2023-09-07T13:00:47;1.90;;;1.60;;
23044;SDS011;11690;51.716;23.066;2023-09-07T13:03:15;5.35;;;2.10;;
23044;SDS011;11690;51.716;23.066;2023-09-07T13:05:43;2.90;;;2.10;;
23044;SDS011;11690;51.716;23.066;2023-09-07T13:08:10;2.47;;;1.63;;
23044;SDS011;11690;51.716;23.066;2023-09-07T13:10:37;3.63;;;1.80;;
23044;SDS011;11690;51.716;23.066;2023-09-07T13:13:06;3.67;;;1.88;;
23044;SDS011;11690;51.716;23.066;2023-09-07T13:15:33;2.80;;;1.80;;
23044;SDS011;11690;51.716;23.066;2023-09-07T13:18:01;3.72;;;1.70;;
23044;SDS011;11690;51.716;23.066;2023-09-07T13:20:28;3.38;;;1.85;;
23044;SDS011;11690;51.716;23.066;2023-09-07T13:22:56;4.00;;;1.75;;
23044;SDS011;11690;51.716;23.066;2023-09-07T13:25:23;9.25;;;1.70;;
23044;SDS011;11690;51.716;23.066;2023-09-07T13:27:50;4.82;;;1.73;;
23044;SDS011;11690;51.716;23.066;2023-09-07T13:30:18;2.90;;;1.60;;
23044;SDS011;11690;51.716;23.066;2023-09-07T13:32:45;2.10;;;1.67;;
23044;SDS011;11690;51.716;23.066;2023-09-07T13:35:14;2.92;;;1.67;;
23044;SDS011;11690;51.716;23.066;2023-09-07T13:37:41;2.42;;;1.52;;
23044;SDS011;11690;51.716;23.066;2023-09-07T13:40:09;2.97;;;1.80;;
23044;SDS011;11690;51.716;23.066;2023-09-07T13:42:36;3.83;;;1.77;;
23044;SDS011;11690;51.716;23.066;2023-09-07T13:45:05;5.57;;;1.60;;
23044;SDS011;11690;51.716;23.066;2023-09-07T13:47:33;8.48;;;2.05;;
23044;SDS011;11690;51.716;23.066;2023-09-07T13:50:01;3.00;;;1.48;;
23044;SDS011;11690;51.716;23.066;2023-09-07T13:52:28;4.72;;;1.88;;
23044;SDS011;11690;51.716;23.066;2023-09-07T13:54:55;7.82;;;1.88;;
23044;SDS011;11690;51.716;23.066;2023-09-07T13:57:22;5.57;;;1.75;;
23044;SDS011;11690;51.716;23.066;2023-09-07T13:59:50;3.88;;;1.73;;
23044;SDS011;11690;51.716;23.066;2023-09-07T14:02:17;5.28;;;1.83;;
23044;SDS011;11690;51.716;23.066;2023-09-07T14:04:44;2.30;;;1.70;;
23044;SDS011;11690;51.716;23.066;2023-09-07T14:07:11;4.75;;;1.90;;
23044;SDS011;11690;51.716;23.066;2023-09-07T14:09:39;4.72;;;1.88;;
23044;SDS011;11690;51.716;23.066;2023-09-07T14:12:06;2.78;;;1.83;;
23044;SDS011;11690;51.716;23.066;2023-09-07T14:14:34;1.92;;;1.50;;
23044;SDS011;11690;51.716;23.066;2023-09-07T14:17:01;3.10;;;1.88;;
23044;SDS011;11690;51.716;23.066;2023-09-07T14:19:29;5.55;;;1.85;;
23044;SDS011;11690;51.716;23.066;2023-09-07T14:21:57;3.25;;;1.33;;
23044;SDS011;11690;51.716;23.066;2023-09-07T14:24:25;4.13;;;1.80;;
23044;SDS011;11690;51.716;23.066;2023-09-07T14:26:52;4.65;;;1.75;;
23044;SDS011;11690;51.716;23.066;2023-09-07T14:29:20;12.43;;;2.00;;
23044;SDS011;11690;51.716;23.066;2023-09-07T14:31:47;2.17;;;1.70;;
23044;SDS011;11690;51.716;23.066;2023-09-07T14:34:15;3.03;;;1.90;;
23044;SDS011;11690;51.716;23.066;2023-09-07T14:36:42;7.25;;;1.83;;